sensor_id;sensor_type;location;lat;lon;timestamp;temperature;humidity
10046;DHT22;5063;50.878;4.742;2022-08-05T00:01:21;19.80;99.90
10046;DHT22;5063;50.878;4.742;2022-08-05T00:03:47;19.70;99.90
10046;DHT22;5063;50.878;4.742;2022-08-05T00:06:14;19.80;99.90
10046;DHT22;5063;50.878;4.742;2022-08-05T00:08:40;19.70;99.90
10046;DHT22;5063;50.878;4.742;2022-08-05T00:11:14;19.80;99.90
10046;DHT22;5063;50.878;4.742;2022-08-05T00:13:41;19.80;99.90
10046;DHT22;5063;50.878;4.742;2022-08-05T00:16:13;19.70;99.90
10046;DHT22;5063;50.878;4.742;2022-08-05T00:18:42;19.70;99.90
10046;DHT22;5063;50.878;4.742;2022-08-05T00:21:08;19.70;99.90
10046;DHT22;5063;50.878;4.742;2022-08-05T00:23:36;19.70;99.90
10046;DHT22;5063;50.878;4.742;2022-08-05T00:26:02;19.70;99.90
10046;DHT22;5063;50.878;4.742;2022-08-05T00:28:28;19.70;99.90
10046;DHT22;5063;50.878;4.742;2022-08-05T00:30:53;19.80;99.90
10046;DHT22;5063;50.878;4.742;2022-08-05T00:33:19;19.80;99.90
10046;DHT22;5063;50.878;4.742;2022-08-05T00:35:45;19.80;99.90
10046;DHT22;5063;50.878;4.742;2022-08-05T00:38:10;19.80;99.90
10046;DHT22;5063;50.878;4.742;2022-08-05T00:40:49;19.80;99.90
10046;DHT22;5063;50.878;4.742;2022-08-05T00:43:15;19.80;99.90
10046;DHT22;5063;50.878;4.742;2022-08-05T00:45:41;19.80;99.90
10046;DHT22;5063;50.878;4.742;2022-08-05T00:48:13;19.80;99.90
10046;DHT22;5063;50.878;4.742;2022-08-05T00:50:40;19.60;99.90
10046;DHT22;5063;50.878;4.742;2022-08-05T00:53:07;19.50;99.90
10046;DHT22;5063;50.878;4.742;2022-08-05T00:55:33;19.50;99.90
10046;DHT22;5063;50.878;4.742;2022-08-05T00:57:59;19.40;99.90
10046;DHT22;5063;50.878;4.742;2022-08-05T01:00:28;19.30;99.90
10046;DHT22;5063;50.878;4.742;2022-08-05T01:02:56;19.30;99.90
10046;DHT22;5063;50.878;4.742;2022-08-05T01:05:22;19.20;99.90
10046;DHT22;5063;50.878;4.742;2022-08-05T01:07:48;19.20;99.90
10046;DHT22;5063;50.878;4.742;2022-08-05T01:10:15;19.20;99.90
10046;DHT22;5063;50.878;4.742;2022-08-05T01:12:47;19.10;99.90
10046;DHT22;5063;50.878;4.742;2022-08-05T01:15:21;19.10;99.90
10046;DHT22;5063;50.878;4.742;2022-08-05T01:17:52;19.10;99.90
10046;DHT22;5063;50.878;4.742;2022-08-05T01:23:39;19.10;99.90
10046;DHT22;5063;50.878;4.742;2022-08-05T01:28:51;18.80;99.90
10046;DHT22;5063;50.878;4.742;2022-08-05T01:31:23;18.60;99.90
10046;DHT22;5063;50.878;4.742;2022-08-05T01:36:48;18.40;99.90
10046;DHT22;5063;50.878;4.742;2022-08-05T01:39:15;18.40;99.90
10046;DHT22;5063;50.878;4.742;2022-08-05T01:41:42;18.40;99.90
10046;DHT22;5063;50.878;4.742;2022-08-05T01:44:10;18.50;99.90
10046;DHT22;5063;50.878;4.742;2022-08-05T01:46:38;18.50;99.90
10046;DHT22;5063;50.878;4.742;2022-08-05T01:49:05;18.50;99.90
10046;DHT22;5063;50.878;4.742;2022-08-05T01:51:34;18.60;99.90
10046;DHT22;5063;50.878;4.742;2022-08-05T01:54:02;18.60;99.90
10046;DHT22;5063;50.878;4.742;2022-08-05T01:56:32;18.70;99.90
10046;DHT22;5063;50.878;4.742;2022-08-05T01:59:01;18.70;99.90
10046;DHT22;5063;50.878;4.742;2022-08-05T02:01:29;18.80;99.90
10046;DHT22;5063;50.878;4.742;2022-08-05T02:03:57;18.70;99.90
10046;DHT22;5063;50.878;4.742;2022-08-05T02:06:24;18.70;99.90
10046;DHT22;5063;50.878;4.742;2022-08-05T02:08:50;18.90;99.90
10046;DHT22;5063;50.878;4.742;2022-08-05T02:11:16;18.80;99.90
10046;DHT22;5063;50.878;4.742;2022-08-05T02:16:24;18.80;99.90
10046;DHT22;5063;50.878;4.742;2022-08-05T02:19:21;18.80;99.90
10046;DHT22;5063;50.878;4.742;2022-08-05T02:22:04;18.80;99.90
10046;DHT22;5063;50.878;4.742;2022-08-05T02:24:37;18.80;99.90
10046;DHT22;5063;50.878;4.742;2022-08-05T02:27:05;18.80;99.90
10046;DHT22;5063;50.878;4.742;2022-08-05T02:29:34;18.80;99.90
10046;DHT22;5063;50.878;4.742;2022-08-05T02:32:01;18.80;99.90
10046;DHT22;5063;50.878;4.742;2022-08-05T02:34:31;18.80;99.90
10046;DHT22;5063;50.878;4.742;2022-08-05T02:37:00;18.90;99.90
10046;DHT22;5063;50.878;4.742;2022-08-05T02:39:30;18.90;99.90
10046;DHT22;5063;50.878;4.742;2022-08-05T02:42:00;18.90;99.90
10046;DHT22;5063;50.878;4.742;2022-08-05T02:44:27;18.90;99.90
10046;DHT22;5063;50.878;4.742;2022-08-05T02:46:55;19.00;99.90
10046;DHT22;5063;50.878;4.742;2022-08-05T02:49:22;19.00;99.90
10046;DHT22;5063;50.878;4.742;2022-08-05T02:51:49;19.00;99.90
10046;DHT22;5063;50.878;4.742;2022-08-05T02:54:16;19.00;99.90
10046;DHT22;5063;50.878;4.742;2022-08-05T02:56:43;18.90;99.90
10046;DHT22;5063;50.878;4.742;2022-08-05T02:59:12;18.90;99.90
10046;DHT22;5063;50.878;4.742;2022-08-05T03:01:40;18.90;99.90
10046;DHT22;5063;50.878;4.742;2022-08-05T03:04:10;18.90;99.90
10046;DHT22;5063;50.878;4.742;2022-08-05T03:06:38;18.90;99.90
10046;DHT22;5063;50.878;4.742;2022-08-05T03:09:05;19.00;99.90
10046;DHT22;5063;50.878;4.742;2022-08-05T03:11:31;19.00;99.90
10046;DHT22;5063;50.878;4.742;2022-08-05T03:13:57;19.00;99.90
10046;DHT22;5063;50.878;4.742;2022-08-05T03:16:23;19.10;99.90
10046;DHT22;5063;50.878;4.742;2022-08-05T03:18:48;19.00;99.90
10046;DHT22;5063;50.878;4.742;2022-08-05T03:21:14;19.00;99.90
10046;DHT22;5063;50.878;4.742;2022-08-05T03:23:42;19.00;99.90
10046;DHT22;5063;50.878;4.742;2022-08-05T03:26:08;19.00;99.90
10046;DHT22;5063;50.878;4.742;2022-08-05T03:28:34;19.00;99.90
10046;DHT22;5063;50.878;4.742;2022-08-05T03:31:01;18.90;99.90
10046;DHT22;5063;50.878;4.742;2022-08-05T03:33:27;18.80;99.90
10046;DHT22;5063;50.878;4.742;2022-08-05T03:35:55;18.80;99.90
10046;DHT22;5063;50.878;4.742;2022-08-05T03:38:22;18.80;99.90
10046;DHT22;5063;50.878;4.742;2022-08-05T03:40:48;18.80;99.90
10046;DHT22;5063;50.878;4.742;2022-08-05T03:43:15;18.80;99.90
10046;DHT22;5063;50.878;4.742;2022-08-05T03:45:42;18.80;99.90
10046;DHT22;5063;50.878;4.742;2022-08-05T03:48:08;18.70;99.90
10046;DHT22;5063;50.878;4.742;2022-08-05T03:53:38;18.50;99.90
10046;DHT22;5063;50.878;4.742;2022-08-05T03:56:11;18.50;99.90
10046;DHT22;5063;50.878;4.742;2022-08-05T03:58:39;18.50;99.90
10046;DHT22;5063;50.878;4.742;2022-08-05T04:01:07;18.40;99.90
10046;DHT22;5063;50.878;4.742;2022-08-05T04:03:36;18.50;99.90
10046;DHT22;5063;50.878;4.742;2022-08-05T04:06:04;18.50;99.90
10046;DHT22;5063;50.878;4.742;2022-08-05T04:08:31;18.50;99.90
10046;DHT22;5063;50.878;4.742;2022-08-05T04:10:58;18.40;99.90
10046;DHT22;5063;50.878;4.742;2022-08-05T04:13:25;18.40;99.90
10046;DHT22;5063;50.878;4.742;2022-08-05T04:15:51;18.40;99.90
10046;DHT22;5063;50.878;4.742;2022-08-05T04:18:17;18.30;99.90
10046;DHT22;5063;50.878;4.742;2022-08-05T04:20:43;18.30;99.90
10046;DHT22;5063;50.878;4.742;2022-08-05T04:23:10;18.30;99.90
10046;DHT22;5063;50.878;4.742;2022-08-05T04:25:36;18.30;99.90
10046;DHT22;5063;50.878;4.742;2022-08-05T04:28:02;18.20;99.90
10046;DHT22;5063;50.878;4.742;2022-08-05T04:30:28;18.20;99.90
10046;DHT22;5063;50.878;4.742;2022-08-05T04:32:53;18.20;99.90
10046;DHT22;5063;50.878;4.742;2022-08-05T04:35:19;18.10;99.90
10046;DHT22;5063;50.878;4.742;2022-08-05T04:37:45;18.10;99.90
10046;DHT22;5063;50.878;4.742;2022-08-05T04:40:11;18.10;99.90
10046;DHT22;5063;50.878;4.742;2022-08-05T04:42:36;18.20;99.90
10046;DHT22;5063;50.878;4.742;2022-08-05T04:45:02;18.20;99.90
10046;DHT22;5063;50.878;4.742;2022-08-05T04:47:28;18.30;99.90
10046;DHT22;5063;50.878;4.742;2022-08-05T04:49:54;18.30;99.90
10046;DHT22;5063;50.878;4.742;2022-08-05T04:52:20;18.30;99.90
10046;DHT22;5063;50.878;4.742;2022-08-05T04:54:45;18.30;99.90
10046;DHT22;5063;50.878;4.742;2022-08-05T04:57:11;18.30;99.90
10046;DHT22;5063;50.878;4.742;2022-08-05T04:59:37;18.30;99.90
10046;DHT22;5063;50.878;4.742;2022-08-05T05:02:03;18.20;99.90
10046;DHT22;5063;50.878;4.742;2022-08-05T05:04:28;18.30;99.90
10046;DHT22;5063;50.878;4.742;2022-08-05T05:06:54;18.30;99.90
10046;DHT22;5063;50.878;4.742;2022-08-05T05:09:20;18.20;99.90
10046;DHT22;5063;50.878;4.742;2022-08-05T05:11:45;18.30;99.90
10046;DHT22;5063;50.878;4.742;2022-08-05T05:14:11;18.20;99.90
10046;DHT22;5063;50.878;4.742;2022-08-05T05:16:37;18.20;99.90
10046;DHT22;5063;50.878;4.742;2022-08-05T05:19:03;18.30;99.90
10046;DHT22;5063;50.878;4.742;2022-08-05T05:21:28;18.20;99.90
10046;DHT22;5063;50.878;4.742;2022-08-05T05:23:54;18.30;99.90
10046;DHT22;5063;50.878;4.742;2022-08-05T05:26:20;18.20;99.90
10046;DHT22;5063;50.878;4.742;2022-08-05T05:28:46;18.30;99.90
10046;DHT22;5063;50.878;4.742;2022-08-05T05:31:12;18.20;99.90
10046;DHT22;5063;50.878;4.742;2022-08-05T05:33:38;18.30;99.90
10046;DHT22;5063;50.878;4.742;2022-08-05T05:36:04;18.30;99.90
10046;DHT22;5063;50.878;4.742;2022-08-05T05:38:29;18.30;99.90
10046;DHT22;5063;50.878;4.742;2022-08-05T05:40:55;18.30;99.90
10046;DHT22;5063;50.878;4.742;2022-08-05T05:43:21;18.40;99.90
10046;DHT22;5063;50.878;4.742;2022-08-05T05:45:47;18.40;99.90
10046;DHT22;5063;50.878;4.742;2022-08-05T05:48:13;18.40;99.90
10046;DHT22;5063;50.878;4.742;2022-08-05T05:50:39;18.40;99.90
10046;DHT22;5063;50.878;4.742;2022-08-05T05:53:06;18.50;99.90
10046;DHT22;5063;50.878;4.742;2022-08-05T05:55:34;18.60;99.90
10046;DHT22;5063;50.878;4.742;2022-08-05T05:57:59;18.80;99.90
10046;DHT22;5063;50.878;4.742;2022-08-05T06:00:25;19.10;99.90
10046;DHT22;5063;50.878;4.742;2022-08-05T06:02:51;19.30;99.90
10046;DHT22;5063;50.878;4.742;2022-08-05T06:05:17;19.50;99.90
10046;DHT22;5063;50.878;4.742;2022-08-05T06:07:44;19.40;99.90
10046;DHT22;5063;50.878;4.742;2022-08-05T06:10:11;19.30;99.90
10046;DHT22;5063;50.878;4.742;2022-08-05T06:12:37;19.30;99.90
10046;DHT22;5063;50.878;4.742;2022-08-05T06:15:04;19.30;99.90
10046;DHT22;5063;50.878;4.742;2022-08-05T06:17:31;19.30;99.90
10046;DHT22;5063;50.878;4.742;2022-08-05T06:19:57;19.30;99.90
10046;DHT22;5063;50.878;4.742;2022-08-05T06:22:25;19.40;99.90
10046;DHT22;5063;50.878;4.742;2022-08-05T06:24:51;19.60;99.90
10046;DHT22;5063;50.878;4.742;2022-08-05T06:27:17;19.80;99.90
10046;DHT22;5063;50.878;4.742;2022-08-05T06:29:43;20.00;99.90
10046;DHT22;5063;50.878;4.742;2022-08-05T06:32:10;20.30;99.90
10046;DHT22;5063;50.878;4.742;2022-08-05T06:34:36;20.70;99.90
10046;DHT22;5063;50.878;4.742;2022-08-05T06:37:02;20.90;99.90
10046;DHT22;5063;50.878;4.742;2022-08-05T06:39:27;21.00;99.90
10046;DHT22;5063;50.878;4.742;2022-08-05T06:41:55;21.10;99.90
10046;DHT22;5063;50.878;4.742;2022-08-05T06:44:21;20.80;99.90
10046;DHT22;5063;50.878;4.742;2022-08-05T06:46:47;20.60;99.90
10046;DHT22;5063;50.878;4.742;2022-08-05T06:49:12;20.20;99.90
10046;DHT22;5063;50.878;4.742;2022-08-05T06:51:38;20.10;99.90
10046;DHT22;5063;50.878;4.742;2022-08-05T06:54:04;20.10;99.90
10046;DHT22;5063;50.878;4.742;2022-08-05T06:56:31;20.00;99.90
10046;DHT22;5063;50.878;4.742;2022-08-05T06:58:57;20.00;99.90
10046;DHT22;5063;50.878;4.742;2022-08-05T07:01:23;20.00;99.90
10046;DHT22;5063;50.878;4.742;2022-08-05T07:03:49;20.20;99.90
10046;DHT22;5063;50.878;4.742;2022-08-05T07:06:15;20.50;99.90
10046;DHT22;5063;50.878;4.742;2022-08-05T07:08:42;20.50;99.90
10046;DHT22;5063;50.878;4.742;2022-08-05T07:11:07;20.60;99.90
10046;DHT22;5063;50.878;4.742;2022-08-05T07:13:33;20.60;99.90
10046;DHT22;5063;50.878;4.742;2022-08-05T07:16:18;20.60;99.90
10046;DHT22;5063;50.878;4.742;2022-08-05T07:19:02;20.60;99.90
10046;DHT22;5063;50.878;4.742;2022-08-05T07:21:28;20.70;99.90
10046;DHT22;5063;50.878;4.742;2022-08-05T07:23:55;20.70;99.90
10046;DHT22;5063;50.878;4.742;2022-08-05T07:26:21;20.90;99.90
10046;DHT22;5063;50.878;4.742;2022-08-05T07:28:47;20.70;99.90
10046;DHT22;5063;50.878;4.742;2022-08-05T07:31:15;21.10;99.90
10046;DHT22;5063;50.878;4.742;2022-08-05T07:33:42;21.60;99.90
10046;DHT22;5063;50.878;4.742;2022-08-05T07:36:08;22.50;99.90
10046;DHT22;5063;50.878;4.742;2022-08-05T07:38:35;23.60;99.90
10046;DHT22;5063;50.878;4.742;2022-08-05T07:41:06;24.00;99.90
10046;DHT22;5063;50.878;4.742;2022-08-05T07:43:32;24.20;99.90
10046;DHT22;5063;50.878;4.742;2022-08-05T07:45:58;24.80;99.90
10046;DHT22;5063;50.878;4.742;2022-08-05T07:48:23;26.40;99.90
10046;DHT22;5063;50.878;4.742;2022-08-05T07:50:49;27.00;99.90
10046;DHT22;5063;50.878;4.742;2022-08-05T07:53:15;26.90;99.90
10046;DHT22;5063;50.878;4.742;2022-08-05T07:55:41;25.80;99.90
10046;DHT22;5063;50.878;4.742;2022-08-05T07:58:06;24.90;99.90
10046;DHT22;5063;50.878;4.742;2022-08-05T08:00:32;24.90;99.90
10046;DHT22;5063;50.878;4.742;2022-08-05T08:02:58;24.80;99.90
10046;DHT22;5063;50.878;4.742;2022-08-05T08:05:24;24.60;99.90
10046;DHT22;5063;50.878;4.742;2022-08-05T08:07:51;24.20;99.90
10046;DHT22;5063;50.878;4.742;2022-08-05T08:10:16;24.20;99.90
10046;DHT22;5063;50.878;4.742;2022-08-05T08:12:42;24.30;99.90
10046;DHT22;5063;50.878;4.742;2022-08-05T08:15:09;24.30;99.90
10046;DHT22;5063;50.878;4.742;2022-08-05T08:17:35;24.20;99.90
10046;DHT22;5063;50.878;4.742;2022-08-05T08:20:04;23.70;99.90
10046;DHT22;5063;50.878;4.742;2022-08-05T08:22:31;23.60;99.90
10046;DHT22;5063;50.878;4.742;2022-08-05T08:24:57;23.50;99.90
10046;DHT22;5063;50.878;4.742;2022-08-05T08:27:22;23.50;99.90
10046;DHT22;5063;50.878;4.742;2022-08-05T08:29:48;23.50;99.90
10046;DHT22;5063;50.878;4.742;2022-08-05T08:32:14;23.60;99.90
10046;DHT22;5063;50.878;4.742;2022-08-05T08:34:40;24.00;99.90
10046;DHT22;5063;50.878;4.742;2022-08-05T08:37:06;24.30;99.90
10046;DHT22;5063;50.878;4.742;2022-08-05T08:39:32;24.40;99.90
10046;DHT22;5063;50.878;4.742;2022-08-05T08:41:59;24.20;99.90
10046;DHT22;5063;50.878;4.742;2022-08-05T08:44:29;24.40;99.90
10046;DHT22;5063;50.878;4.742;2022-08-05T08:46:55;24.70;99.90
10046;DHT22;5063;50.878;4.742;2022-08-05T08:49:23;24.90;99.90
10046;DHT22;5063;50.878;4.742;2022-08-05T08:51:57;25.10;99.90
10046;DHT22;5063;50.878;4.742;2022-08-05T08:54:24;25.30;99.90
10046;DHT22;5063;50.878;4.742;2022-08-05T08:56:51;25.90;99.90
10046;DHT22;5063;50.878;4.742;2022-08-05T08:59:20;26.40;99.90
10046;DHT22;5063;50.878;4.742;2022-08-05T09:01:46;26.00;99.90
10046;DHT22;5063;50.878;4.742;2022-08-05T09:04:12;25.00;99.90
10046;DHT22;5063;50.878;4.742;2022-08-05T09:06:38;25.10;99.90
10046;DHT22;5063;50.878;4.742;2022-08-05T09:09:05;25.30;99.90
10046;DHT22;5063;50.878;4.742;2022-08-05T09:11:35;25.50;99.90
10046;DHT22;5063;50.878;4.742;2022-08-05T09:14:03;25.20;99.90
10046;DHT22;5063;50.878;4.742;2022-08-05T09:16:30;25.30;99.90
10046;DHT22;5063;50.878;4.742;2022-08-05T09:18:56;25.00;99.90
10046;DHT22;5063;50.878;4.742;2022-08-05T09:21:22;25.20;99.90
10046;DHT22;5063;50.878;4.742;2022-08-05T09:24:05;25.20;99.90
10046;DHT22;5063;50.878;4.742;2022-08-05T09:26:33;26.30;99.90
10046;DHT22;5063;50.878;4.742;2022-08-05T09:29:01;27.20;99.90
10046;DHT22;5063;50.878;4.742;2022-08-05T09:31:30;27.40;99.90
10046;DHT22;5063;50.878;4.742;2022-08-05T09:34:05;27.90;99.90
10046;DHT22;5063;50.878;4.742;2022-08-05T09:36:43;28.70;99.90
10046;DHT22;5063;50.878;4.742;2022-08-05T09:39:12;29.10;99.90
10046;DHT22;5063;50.878;4.742;2022-08-05T09:41:59;29.20;99.90
10046;DHT22;5063;50.878;4.742;2022-08-05T09:47:19;28.30;99.90
10046;DHT22;5063;50.878;4.742;2022-08-05T09:49:52;27.10;99.90
10046;DHT22;5063;50.878;4.742;2022-08-05T09:52:20;26.00;99.90
10046;DHT22;5063;50.878;4.742;2022-08-05T09:55:00;25.40;99.90
10046;DHT22;5063;50.878;4.742;2022-08-05T09:57:42;25.30;99.90
10046;DHT22;5063;50.878;4.742;2022-08-05T10:00:14;24.40;99.90
10046;DHT22;5063;50.878;4.742;2022-08-05T10:02:49;23.80;99.90
10046;DHT22;5063;50.878;4.742;2022-08-05T10:05:17;23.30;99.90
10046;DHT22;5063;50.878;4.742;2022-08-05T10:10:13;23.40;99.90
10046;DHT22;5063;50.878;4.742;2022-08-05T10:12:43;23.30;99.90
10046;DHT22;5063;50.878;4.742;2022-08-05T10:15:29;23.40;99.90
10046;DHT22;5063;50.878;4.742;2022-08-05T10:18:06;23.40;99.90
10046;DHT22;5063;50.878;4.742;2022-08-05T10:20:35;23.50;99.90
10046;DHT22;5063;50.878;4.742;2022-08-05T10:23:01;23.80;99.90
10046;DHT22;5063;50.878;4.742;2022-08-05T10:25:27;24.00;99.90
10046;DHT22;5063;50.878;4.742;2022-08-05T10:27:53;24.40;99.90
10046;DHT22;5063;50.878;4.742;2022-08-05T10:30:22;24.70;99.90
10046;DHT22;5063;50.878;4.742;2022-08-05T10:32:47;25.10;99.90
10046;DHT22;5063;50.878;4.742;2022-08-05T10:35:14;25.50;99.90
10046;DHT22;5063;50.878;4.742;2022-08-05T10:37:40;25.80;99.90
10046;DHT22;5063;50.878;4.742;2022-08-05T10:40:13;25.50;99.90
10046;DHT22;5063;50.878;4.742;2022-08-05T10:42:42;25.50;99.90
10046;DHT22;5063;50.878;4.742;2022-08-05T10:45:11;24.90;99.90
10046;DHT22;5063;50.878;4.742;2022-08-05T10:47:38;24.90;99.90
10046;DHT22;5063;50.878;4.742;2022-08-05T10:50:10;24.70;99.90
10046;DHT22;5063;50.878;4.742;2022-08-05T10:52:49;24.90;99.90
10046;DHT22;5063;50.878;4.742;2022-08-05T10:55:25;25.40;99.90
10046;DHT22;5063;50.878;4.742;2022-08-05T10:58:08;25.80;99.90
10046;DHT22;5063;50.878;4.742;2022-08-05T11:00:34;25.80;99.90
10046;DHT22;5063;50.878;4.742;2022-08-05T11:05:33;24.90;99.90
10046;DHT22;5063;50.878;4.742;2022-08-05T11:08:07;24.50;99.90
10046;DHT22;5063;50.878;4.742;2022-08-05T11:10:35;24.40;99.90
10046;DHT22;5063;50.878;4.742;2022-08-05T11:13:03;24.70;99.90
10046;DHT22;5063;50.878;4.742;2022-08-05T11:15:31;24.90;99.90
10046;DHT22;5063;50.878;4.742;2022-08-05T11:20:47;24.80;99.90
10046;DHT22;5063;50.878;4.742;2022-08-05T11:23:40;24.50;99.90
10046;DHT22;5063;50.878;4.742;2022-08-05T11:26:14;24.50;99.90
10046;DHT22;5063;50.878;4.742;2022-08-05T11:28:46;25.00;99.90
10046;DHT22;5063;50.878;4.742;2022-08-05T11:36:11;24.90;99.90
10046;DHT22;5063;50.878;4.742;2022-08-05T11:41:22;25.40;99.90
10046;DHT22;5063;50.878;4.742;2022-08-05T11:43:56;24.90;99.90
10046;DHT22;5063;50.878;4.742;2022-08-05T11:46:27;24.50;99.90
10046;DHT22;5063;50.878;4.742;2022-08-05T11:48:54;24.20;99.90
10046;DHT22;5063;50.878;4.742;2022-08-05T11:51:21;24.40;99.90
10046;DHT22;5063;50.878;4.742;2022-08-05T11:53:47;24.80;99.90
10046;DHT22;5063;50.878;4.742;2022-08-05T11:56:13;25.20;99.90
10046;DHT22;5063;50.878;4.742;2022-08-05T11:58:41;25.30;99.90
10046;DHT22;5063;50.878;4.742;2022-08-05T12:01:14;25.10;99.90
10046;DHT22;5063;50.878;4.742;2022-08-05T12:03:48;24.90;99.90
10046;DHT22;5063;50.878;4.742;2022-08-05T12:06:23;25.10;99.90
10046;DHT22;5063;50.878;4.742;2022-08-05T12:08:56;25.10;99.90
10046;DHT22;5063;50.878;4.742;2022-08-05T12:11:26;25.10;99.90
10046;DHT22;5063;50.878;4.742;2022-08-05T12:13:57;25.10;99.90
10046;DHT22;5063;50.878;4.742;2022-08-05T12:16:24;24.90;99.90
10046;DHT22;5063;50.878;4.742;2022-08-05T12:18:51;24.70;99.90
10046;DHT22;5063;50.878;4.742;2022-08-05T12:24:10;25.10;99.90
10046;DHT22;5063;50.878;4.742;2022-08-05T12:26:52;24.80;99.90
10046;DHT22;5063;50.878;4.742;2022-08-05T12:29:25;24.60;99.90
10046;DHT22;5063;50.878;4.742;2022-08-05T12:31:57;24.60;99.90
10046;DHT22;5063;50.878;4.742;2022-08-05T12:34:29;24.50;99.90
10046;DHT22;5063;50.878;4.742;2022-08-05T12:36:58;24.40;99.90
10046;DHT22;5063;50.878;4.742;2022-08-05T12:39:25;24.40;99.90
10046;DHT22;5063;50.878;4.742;2022-08-05T12:41:57;24.60;99.90
10046;DHT22;5063;50.878;4.742;2022-08-05T12:44:24;24.40;99.90
10046;DHT22;5063;50.878;4.742;2022-08-05T12:46:54;24.60;99.90
10046;DHT22;5063;50.878;4.742;2022-08-05T12:49:21;24.90;99.90
10046;DHT22;5063;50.878;4.742;2022-08-05T12:54:25;25.30;99.90
10046;DHT22;5063;50.878;4.742;2022-08-05T12:57:02;25.10;99.90
10046;DHT22;5063;50.878;4.742;2022-08-05T12:59:41;25.10;99.90
10046;DHT22;5063;50.878;4.742;2022-08-05T13:02:09;24.80;99.90
10046;DHT22;5063;50.878;4.742;2022-08-05T13:04:40;24.90;99.90
10046;DHT22;5063;50.878;4.742;2022-08-05T13:07:08;24.60;99.90
10046;DHT22;5063;50.878;4.742;2022-08-05T13:09:39;24.60;99.90
10046;DHT22;5063;50.878;4.742;2022-08-05T13:12:11;24.90;99.90
10046;DHT22;5063;50.878;4.742;2022-08-05T13:14:45;25.50;99.90
10046;DHT22;5063;50.878;4.742;2022-08-05T13:19:40;25.30;99.90
10046;DHT22;5063;50.878;4.742;2022-08-05T13:22:06;25.20;99.90
10046;DHT22;5063;50.878;4.742;2022-08-05T13:24:32;25.20;99.90
10046;DHT22;5063;50.878;4.742;2022-08-05T13:26:58;25.30;99.90
10046;DHT22;5063;50.878;4.742;2022-08-05T13:29:24;25.00;99.90
10046;DHT22;5063;50.878;4.742;2022-08-05T13:31:49;24.70;99.90
10046;DHT22;5063;50.878;4.742;2022-08-05T13:34:15;24.50;99.90
10046;DHT22;5063;50.878;4.742;2022-08-05T13:36:42;24.10;99.90
10046;DHT22;5063;50.878;4.742;2022-08-05T13:39:08;24.00;99.90
10046;DHT22;5063;50.878;4.742;2022-08-05T13:41:35;24.20;99.90
10046;DHT22;5063;50.878;4.742;2022-08-05T13:44:01;24.50;99.90
10046;DHT22;5063;50.878;4.742;2022-08-05T13:46:27;24.60;99.90
10046;DHT22;5063;50.878;4.742;2022-08-05T13:48:54;24.70;99.90
10046;DHT22;5063;50.878;4.742;2022-08-05T13:51:31;24.90;99.90
10046;DHT22;5063;50.878;4.742;2022-08-05T13:53:58;25.10;99.90
10046;DHT22;5063;50.878;4.742;2022-08-05T13:56:24;25.20;99.90
10046;DHT22;5063;50.878;4.742;2022-08-05T13:58:50;25.10;99.90
10046;DHT22;5063;50.878;4.742;2022-08-05T14:01:16;25.00;99.90
10046;DHT22;5063;50.878;4.742;2022-08-05T14:03:41;25.40;99.70
10046;DHT22;5063;50.878;4.742;2022-08-05T14:06:07;25.50;99.90
10046;DHT22;5063;50.878;4.742;2022-08-05T14:08:33;25.70;99.60
10046;DHT22;5063;50.878;4.742;2022-08-05T14:10:58;25.90;98.20
10046;DHT22;5063;50.878;4.742;2022-08-05T14:13:24;25.70;98.30
10046;DHT22;5063;50.878;4.742;2022-08-05T14:15:50;25.70;97.50
10046;DHT22;5063;50.878;4.742;2022-08-05T14:18:16;25.40;97.00
10046;DHT22;5063;50.878;4.742;2022-08-05T14:20:42;25.10;97.50
10046;DHT22;5063;50.878;4.742;2022-08-05T14:23:07;25.10;97.80
10046;DHT22;5063;50.878;4.742;2022-08-05T14:25:33;25.00;96.90
10046;DHT22;5063;50.878;4.742;2022-08-05T14:27:59;25.00;97.60
10046;DHT22;5063;50.878;4.742;2022-08-05T14:30:25;25.30;98.20
10046;DHT22;5063;50.878;4.742;2022-08-05T14:32:51;25.10;98.30
10046;DHT22;5063;50.878;4.742;2022-08-05T14:35:17;24.90;98.80
10046;DHT22;5063;50.878;4.742;2022-08-05T14:37:43;24.90;99.30
10046;DHT22;5063;50.878;4.742;2022-08-05T14:40:09;24.90;99.80
10046;DHT22;5063;50.878;4.742;2022-08-05T14:42:35;25.10;99.10
10046;DHT22;5063;50.878;4.742;2022-08-05T14:45:00;25.30;99.20
10046;DHT22;5063;50.878;4.742;2022-08-05T14:47:26;25.50;98.40
10046;DHT22;5063;50.878;4.742;2022-08-05T14:49:52;25.00;97.50
10046;DHT22;5063;50.878;4.742;2022-08-05T14:52:18;24.80;98.40
10046;DHT22;5063;50.878;4.742;2022-08-05T14:54:45;25.20;98.20
10046;DHT22;5063;50.878;4.742;2022-08-05T14:57:10;25.20;97.70
10046;DHT22;5063;50.878;4.742;2022-08-05T14:59:36;25.20;97.00
10046;DHT22;5063;50.878;4.742;2022-08-05T15:02:05;25.20;97.30
10046;DHT22;5063;50.878;4.742;2022-08-05T15:04:30;25.30;97.50
10046;DHT22;5063;50.878;4.742;2022-08-05T15:06:56;25.20;97.40
10046;DHT22;5063;50.878;4.742;2022-08-05T15:09:22;25.00;97.10
10046;DHT22;5063;50.878;4.742;2022-08-05T15:11:48;25.30;96.40
10046;DHT22;5063;50.878;4.742;2022-08-05T15:14:14;25.10;96.60
10046;DHT22;5063;50.878;4.742;2022-08-05T15:16:39;25.50;96.50
10046;DHT22;5063;50.878;4.742;2022-08-05T15:19:05;25.90;95.90
10046;DHT22;5063;50.878;4.742;2022-08-05T15:21:31;25.50;96.00
10046;DHT22;5063;50.878;4.742;2022-08-05T15:23:57;25.80;94.80
10046;DHT22;5063;50.878;4.742;2022-08-05T15:26:22;25.50;95.40
10046;DHT22;5063;50.878;4.742;2022-08-05T15:28:48;26.00;94.80
10046;DHT22;5063;50.878;4.742;2022-08-05T15:31:14;25.80;94.20
10046;DHT22;5063;50.878;4.742;2022-08-05T15:33:39;25.80;94.10
10046;DHT22;5063;50.878;4.742;2022-08-05T15:36:06;25.90;93.30
10046;DHT22;5063;50.878;4.742;2022-08-05T15:38:33;25.60;92.60
10046;DHT22;5063;50.878;4.742;2022-08-05T15:40:59;25.60;92.90
10046;DHT22;5063;50.878;4.742;2022-08-05T15:43:25;25.50;93.50
10046;DHT22;5063;50.878;4.742;2022-08-05T15:45:50;25.80;93.60
10046;DHT22;5063;50.878;4.742;2022-08-05T15:48:17;26.40;92.00
10046;DHT22;5063;50.878;4.742;2022-08-05T15:50:46;26.30;90.80
10046;DHT22;5063;50.878;4.742;2022-08-05T15:53:15;25.80;91.10
10046;DHT22;5063;50.878;4.742;2022-08-05T15:55:42;25.30;91.70
10046;DHT22;5063;50.878;4.742;2022-08-05T15:58:08;25.30;92.00
10046;DHT22;5063;50.878;4.742;2022-08-05T16:00:34;25.80;91.70
10046;DHT22;5063;50.878;4.742;2022-08-05T16:03:00;25.60;90.70
10046;DHT22;5063;50.878;4.742;2022-08-05T16:05:25;25.80;91.40
10046;DHT22;5063;50.878;4.742;2022-08-05T16:07:51;26.10;90.30
10046;DHT22;5063;50.878;4.742;2022-08-05T16:10:17;26.00;90.30
10046;DHT22;5063;50.878;4.742;2022-08-05T16:12:44;25.80;91.60
10046;DHT22;5063;50.878;4.742;2022-08-05T16:15:11;25.90;90.50
10046;DHT22;5063;50.878;4.742;2022-08-05T16:17:36;25.40;91.40
10046;DHT22;5063;50.878;4.742;2022-08-05T16:20:02;25.00;92.30
10046;DHT22;5063;50.878;4.742;2022-08-05T16:22:28;24.40;92.90
10046;DHT22;5063;50.878;4.742;2022-08-05T16:24:54;23.90;93.90
10046;DHT22;5063;50.878;4.742;2022-08-05T16:27:20;23.80;95.40
10046;DHT22;5063;50.878;4.742;2022-08-05T16:29:46;24.00;95.40